Time;durP1;ratioP1;P1;durP2;ratioP2;P2;SDS_P1;SDS_P2;PMS_P1;PMS_P2;Temp;Humidity;BMP_temperature;BMP_pressure;BME280_temperature;BME280_humidity;BME280_pressure;Samples;Min_cycle;Max_cycle;Signal;HPM_P1;HPM_P2
2022/03/28 00:00:55;;;;;;;14.23;10.23;;;;;;;10.54;58.16;100805.72;1087505;54;20019;-78
2022/03/28 00:02:02;;;;;;;13.38;9.32;;;;;;;10.53;58.27;100808.53;1088132;54;20033;-77
2022/03/28 00:03:06;;;;;;;12.32;9.38;;;;;;;10.45;58.76;100804.66;1089113;46;20029;-77
2022/03/28 00:04:08;;;;;;;12.98;9.18;;;;;;;10.43;58.41;100798.59;1089073;46;20540;-77
2022/03/28 00:05:13;;;;;;;12.75;9.13;;;;;;;10.42;58.78;100799.56;1088578;54;20022;-78
2022/03/28 00:06:15;;;;;;;13.73;9.68;;;;;;;10.44;58.43;100794.94;1090132;46;20057;-76
2022/03/28 00:07:19;;;;;;;13.52;9.32;;;;;;;10.50;58.44;100806.09;1088469;54;20034;-78
2022/03/28 00:08:21;;;;;;;12.27;9.02;;;;;;;10.47;58.27;100791.16;1093999;39;20519;-77
2022/03/28 00:09:25;;;;;;;13.20;9.70;;;;;;;10.41;58.52;100800.53;1092111;46;20045;-77
2022/03/28 00:10:27;;;;;;;14.68;10.13;;;;;;;10.39;58.80;100789.13;1091189;46;20062;-79
2022/03/28 00:11:31;;;;;;;13.35;9.35;;;;;;;10.43;58.78;100793.25;1088135;54;20049;-78
2022/03/28 00:12:34;;;;;;;11.65;9.00;;;;;;;10.47;58.52;100790.34;1087829;54;20600;-78
2022/03/28 00:13:38;;;;;;;11.38;9.05;;;;;;;10.48;58.67;100787.53;1087764;54;20034;-78
2022/03/28 00:14:40;;;;;;;14.00;8.73;;;;;;;10.58;58.21;100780.44;1091794;39;20823;-77
2022/03/28 00:15:44;;;;;;;11.27;8.15;;;;;;;10.66;57.73;100785.16;1089242;46;20034;-78
2022/03/28 00:16:46;;;;;;;12.57;8.43;;;;;;;10.70;57.91;100786.59;1088756;39;20540;-77
2022/03/28 00:17:53;;;;;;;11.27;8.00;;;;;;;10.73;57.62;100780.13;1087522;54;20045;-78
2022/03/28 00:18:55;;;;;;;12.23;8.80;;;;;;;10.73;57.65;100775.66;1087715;54;20042;-78
2022/03/28 00:19:59;;;;;;;12.25;8.30;;;;;;;10.75;57.54;100775.50;1087853;54;20619;-78
2022/03/28 00:21:01;;;;;;;11.23;7.88;;;;;;;10.83;57.39;100780.22;1087355;54;20038;-78
2022/03/28 00:22:06;;;;;;;10.93;8.10;;;;;;;10.83;57.39;100780.22;1089605;39;20500;-77
2022/03/28 00:23:07;;;;;;;11.43;8.95;;;;;;;10.81;57.19;100782.19;1087567;54;20038;-76
2022/03/28 00:24:12;;;;;;;15.20;7.55;;;;;;;10.82;57.22;100776.69;1087583;54;20119;-79
2022/03/28 00:25:13;;;;;;;10.10;7.55;;;;;;;10.84;57.07;100779.25;1087602;54;20038;-78
2022/03/28 00:26:17;;;;;;;9.50;7.13;;;;;;;10.91;56.90;100769.72;1087675;54;20037;-77
2022/03/28 00:27:22;;;;;;;11.10;7.35;;;;;;;10.99;56.65;100772.59;1087499;54;20034;-78
2022/03/28 00:28:23;;;;;;;9.90;7.57;;;;;;;11.06;56.73;100772.94;1087528;54;20030;-78
2022/03/28 00:29:28;;;;;;;10.52;7.22;;;;;;;11.12;56.48;100775.09;1087317;54;20157;-78
2022/03/28 00:30:29;;;;;;;10.00;7.30;;;;;;;11.14;56.35;100775.81;1087525;54;20050;-78
2022/03/28 00:31:33;;;;;;;10.63;7.63;;;;;;;11.17;56.17;100767.53;1087561;54;20042;-77
2022/03/28 00:32:35;;;;;;;9.90;6.60;;;;;;;11.20;56.22;100769.09;1087639;54;20628;-78
2022/03/28 00:33:42;;;;;;;8.38;6.45;;;;;;;11.21;56.18;100770.78;1087409;54;20042;-78
2022/03/28 00:34:46;;;;;;;8.98;6.85;;;;;;;11.19;56.12;100770.06;1087307;54;20050;-79
2022/03/28 00:35:48;;;;;;;10.40;7.82;;;;;;;11.04;56.37;100764.19;1087451;54;20034;-78
2022/03/28 00:36:52;;;;;;;13.35;8.27;;;;;;;10.91;56.66;100772.41;1087457;54;20035;-78
2022/03/28 00:37:54;;;;;;;11.60;8.45;;;;;;;10.81;56.88;100774.16;1087323;54;20090;-77
2022/03/28 00:38:58;;;;;;;13.88;9.32;;;;;;;10.63;57.58;100771.22;1087585;54;20025;-79
2022/03/28 00:40:00;;;;;;;11.30;8.85;;;;;;;10.49;57.92;100770.50;1087600;54;20042;-77
2022/03/28 00:41:04;;;;;;;16.35;9.10;;;;;;;10.36;58.26;100776.00;1088100;46;20591;-77
2022/03/28 00:42:09;;;;;;;12.30;8.10;;;;;;;10.30;58.66;100771.13;1088149;54;20022;-78
2022/03/28 00:43:16;;;;;;;11.73;8.85;;;;;;;10.33;58.37;100770.06;1088094;54;20055;-78
2022/03/28 00:44:18;;;;;;;12.23;8.60;;;;;;;10.37;58.09;100769.72;1089820;46;20034;-78
2022/03/28 00:45:23;;;;;;;13.27;9.32;;;;;;;10.28;58.26;100773.94;1088295;54;20828;-78
2022/03/28 00:46:25;;;;;;;12.27;9.43;;;;;;;10.15;58.78;100766.06;1088295;54;20087;-78
2022/03/28 00:47:30;;;;;;;12.43;8.85;;;;;;;10.15;58.79;100773.25;1088301;54;20027;-77
2022/03/28 00:48:32;;;;;;;14.63;9.35;;;;;;;10.07;59.25;100767.66;1088248;54;20034;-79
2022/03/28 00:49:38;;;;;;;13.32;9.43;;;;;;;10.04;59.45;100766.09;1088269;54;20042;-78
2022/03/28 00:50:41;;;;;;;14.55;9.35;;;;;;;10.09;59.07;100769.25;1088164;54;20050;-77
2022/03/28 00:51:45;;;;;;;13.15;9.57;;;;;;;10.08;59.19;100775.56;1088204;54;20026;-78
2022/03/28 00:52:47;;;;;;;15.68;10.18;;;;;;;9.99;59.30;100770.97;1087974;54;20054;-77
2022/03/28 00:53:52;;;;;;;13.68;9.80;;;;;;;9.86;59.86;100768.44;1088014;31;20678;-79
2022/03/28 00:54:55;;;;;;;12.23;9.68;;;;;;;9.82;59.96;100765.13;1087954;54;20046;-79
2022/03/28 00:55:59;;;;;;;12.65;9.73;;;;;;;9.88;60.01;100771.81;1087941;54;20124;-78
2022/03/28 00:57:02;;;;;;;13.73;9.45;;;;;;;9.87;59.71;100766.59;1088144;54;20042;-79
2022/03/28 00:58:07;;;;;;;14.38;9.70;;;;;;;9.89;59.57;100767.31;1092681;39;20602;-78
2022/03/28 00:59:08;;;;;;;13.02;9.82;;;;;;;9.82;59.88;100765.13;1087789;54;20022;-79
2022/03/28 01:00:14;;;;;;;13.38;9.90;;;;;;;9.78;60.00;100765.50;1087582;54;21095;-77
2022/03/28 01:01:16;;;;;;;14.77;10.23;;;;;;;9.75;60.07;100771.09;1092646;39;20684;-77
2022/03/28 01:02:20;;;;;;;13.18;9.60;;;;;;;9.73;60.33;100763.19;1088161;54;20034;-78
2022/03/28 01:03:21;;;;;;;14.43;9.75;;;;;;;9.74;60.25;100761.38;1088260;54;20038;-77
2022/03/28 01:04:25;;;;;;;12.68;9.38;;;;;;;9.79;60.23;100761.84;1088276;54;20030;-77
2022/03/28 01:05:33;;;;;;;14.48;9.65;;;;;;;9.82;59.99;100758.94;1088727;39;20571;-77
2022/03/28 01:06:36;;;;;;;13.02;8.95;;;;;;;9.72;60.28;100755.31;1088269;54;20079;-77
2022/03/28 01:07:41;;;;;;;13.98;8.98;;;;;;;9.75;60.07;100755.91;1088324;54;20086;-78
2022/03/28 01:08:45;;;;;;;11.77;8.82;;;;;;;9.74;60.18;100762.22;1088225;54;20030;-78
2022/03/28 01:09:47;;;;;;;12.10;8.35;;;;;;;9.78;59.94;100754.81;1090701;39;20538;-77
2022/03/28 01:10:55;;;;;;;12.25;8.38;;;;;;;9.67;59.96;100758.34;1088100;54;20038;-78
2022/03/28 01:11:59;;;;;;;13.40;9.65;;;;;;;9.57;60.46;100752.91;1088227;54;20046;-77
2022/03/28 01:13:03;;;;;;;13.45;9.30;;;;;;;9.50;60.64;100757.88;1088210;54;20070;-77
2022/03/28 01:14:05;;;;;;;12.45;8.90;;;;;;;9.48;60.69;100751.78;1088156;54;20022;-77
2022/03/28 01:15:10;;;;;;;11.80;8.88;;;;;;;9.51;60.85;100748.88;1088207;54;20040;-77
2022/03/28 01:16:14;;;;;;;13.35;9.80;;;;;;;9.56;60.55;100750.34;1088139;54;20062;-77
2022/03/28 01:18:32;;;;;;;10.32;7.93;;;;;;;9.79;59.76;100752.03;1091304;39;20512;-77
2022/03/28 01:19:34;;;;;;;12.27;8.77;;;;;;;9.54;60.24;100750.47;1090683;39;20191;-77
2022/03/28 01:20:42;;;;;;;12.30;9.30;;;;;;;9.48;61.07;100759.81;1088209;54;20019;-77
2022/03/28 01:21:46;;;;;;;12.20;9.35;;;;;;;9.49;60.91;100756.16;1088309;54;20019;-77
2022/03/28 01:22:51;;;;;;;13.10;9.05;;;;;;;9.49;60.77;100758.84;1088235;54;20030;-77
2022/03/28 01:23:52;;;;;;;14.38;8.95;;;;;;;9.51;60.66;100748.88;1088233;54;20038;-77
2022/03/28 01:25:01;;;;;;;12.23;9.07;;;;;;;9.56;60.54;100755.66;1088218;54;20015;-78
2022/03/28 01:26:05;;;;;;;13.35;8.93;;;;;;;9.63;60.34;100748.91;1088007;54;20038;-77
2022/03/28 01:27:08;;;;;;;12.00;8.40;;;;;;;9.80;59.94;100744.88;1088165;54;20042;-77
2022/03/28 01:28:13;;;;;;;10.63;7.25;;;;;;;9.87;59.56;100753.25;1088941;39;20570;-78
2022/03/28 01:29:15;;;;;;;10.02;7.63;;;;;;;9.94;59.36;100744.63;1094750;39;20491;-77
2022/03/28 01:30:19;;;;;;;9.95;7.25;;;;;;;10.00;59.26;100751.28;1088079;54;20089;-77
2022/03/28 01:31:23;;;;;;;9.50;6.78;;;;;;;10.06;58.95;100748.13;1088122;54;20042;-78
2022/03/28 01:32:25;;;;;;;10.18;7.43;;;;;;;10.11;58.70;100751.25;1088181;54;20038;-78
2022/03/28 01:33:29;;;;;;;10.82;7.50;;;;;;;10.06;58.90;100747.28;1088175;54;20034;-78
2022/03/28 01:34:31;;;;;;;9.30;6.93;;;;;;;10.03;59.11;100747.53;1088183;54;20035;-77
2022/03/28 01:35:37;;;;;;;10.02;7.28;;;;;;;9.96;59.43;100741.81;1088188;54;20031;-77
2022/03/28 01:36:38;;;;;;;15.98;8.57;;;;;;;9.84;59.49;100746.34;1088176;54;20049;-78
2022/03/28 01:37:45;;;;;;;11.35;8.27;;;;;;;9.69;60.03;100745.72;1088232;54;20014;-78
2022/03/28 01:38:49;;;;;;;10.95;8.30;;;;;;;9.58;60.39;100740.38;1088263;54;20046;-77
2022/03/28 01:39:51;;;;;;;16.25;9.73;;;;;;;9.40;61.12;100745.38;1088401;54;20038;-77
2022/03/28 01:40:55;;;;;;;13.75;9.35;;;;;;;9.30;61.25;100747.91;1088285;54;20038;-78
2022/03/28 01:42:00;;;;;;;12.32;9.20;;;;;;;9.19;61.86;100752.25;1088351;54;20031;-78
2022/03/28 01:43:04;;;;;;;13.15;9.27;;;;;;;9.12;62.15;100747.50;1090201;46;20036;-78
2022/03/28 01:44:06;;;;;;;16.13;9.45;;;;;;;9.07;62.34;100750.50;1090694;46;20034;-78
2022/03/28 01:45:14;;;;;;;13.38;9.98;;;;;;;9.00;62.87;100749.28;1088454;54;20086;-79
2022/03/28 01:46:44;;;;;;;12.85;9.80;;;;;;;8.97;63.39;100745.03;1089279;46;20054;-79
2022/03/28 01:48:25;;;;;;;14.18;10.70;;;;;;;8.87;63.65;100742.25;1088337;54;20019;-79
2022/03/28 01:49:34;;;;;;;14.32;9.75;;;;;;;8.81;63.29;100739.19;1090065;46;20115;-79
2022/03/28 01:50:40;;;;;;;14.88;9.75;;;;;;;8.82;63.30;100741.72;1088244;54;20046;-79
2022/03/28 01:51:41;;;;;;;15.70;10.45;;;;;;;8.84;63.14;100734.47;1090977;46;20034;-79
2022/03/28 01:52:48;;;;;;;12.38;9.32;;;;;;;8.99;62.75;100742.25;1088204;54;20027;-79
2022/03/28 01:53:50;;;;;;;11.43;8.68;;;;;;;9.14;61.91;100737.56;1088225;54;20010;-78
2022/03/28 01:54:54;;;;;;;13.13;9.63;;;;;;;9.20;62.02;100739.78;1089096;46;20018;-78
2022/03/28 01:55:58;;;;;;;12.27;8.90;;;;;;;9.20;61.72;100734.44;1088347;54;20031;-78
2022/03/28 01:56:59;;;;;;;10.93;8.52;;;;;;;9.22;61.80;100740.47;1088292;54;20042;-78
2022/03/28 01:58:03;;;;;;;13.77;8.82;;;;;;;9.26;61.54;100730.44;1089345;46;20027;-78
2022/03/28 01:59:07;;;;;;;12.88;7.85;;;;;;;9.32;61.33;100729.94;1088155;54;20030;-79
2022/03/28 02:00:13;;;;;;;13.20;8.60;;;;;;;9.27;61.46;100730.31;1089446;46;20061;-78
2022/03/28 02:01:14;;;;;;;12.20;8.70;;;;;;;9.38;61.24;100724.13;1088921;46;20041;-78
2022/03/28 02:02:19;;;;;;;11.63;8.20;;;;;;;9.49;60.97;100732.16;1090281;46;20054;-79
2022/03/28 02:03:20;;;;;;;12.40;8.60;;;;;;;9.39;61.22;100730.31;1087945;54;20074;-78
2022/03/28 02:04:24;;;;;;;13.35;9.30;;;;;;;9.22;61.91;100729.81;1089498;39;20614;-79
2022/03/28 02:05:28;;;;;;;12.43;9.43;;;;;;;9.23;61.99;100733.34;1088068;54;20030;-79
2022/03/28 02:06:32;;;;;;;14.70;9.85;;;;;;;9.26;61.60;100730.44;1088054;54;20066;-78
2022/03/28 02:07:36;;;;;;;13.23;9.00;;;;;;;9.29;61.51;100728.38;1087984;54;20030;-80
2022/03/28 02:08:43;;;;;;;12.68;9.10;;;;;;;9.33;61.89;100729.00;1087446;54;20057;-79
2022/03/28 02:09:45;;;;;;;12.45;8.68;;;;;;;9.39;61.47;100725.81;1088359;46;20049;-79
2022/03/28 02:10:49;;;;;;;13.05;8.88;;;;;;;9.44;61.26;100730.81;1087305;54;20034;-79
2022/03/28 02:11:50;;;;;;;11.73;8.30;;;;;;;9.45;60.94;100728.00;1087412;54;20042;-79
2022/03/28 02:12:55;;;;;;;13.23;8.07;;;;;;;9.43;61.03;100729.97;1088022;46;20052;-79
2022/03/28 02:13:57;;;;;;;11.90;8.68;;;;;;;9.38;61.24;100723.28;1087195;54;20054;-79
2022/03/28 02:15:01;;;;;;;13.70;9.55;;;;;;;9.32;61.47;100725.44;1087949;46;20034;-80
2022/03/28 02:16:05;;;;;;;12.43;9.32;;;;;;;9.24;61.73;100722.53;1087539;54;20074;-79
2022/03/28 02:17:07;;;;;;;13.55;9.15;;;;;;;9.11;61.77;100725.31;1087418;54;20047;-79
2022/03/28 02:18:11;;;;;;;13.93;9.35;;;;;;;9.12;62.15;100728.81;1088439;39;20461;-78
2022/03/28 02:19:13;;;;;;;13.70;9.25;;;;;;;9.16;61.84;100722.28;1087601;54;20026;-78
2022/03/28 02:20:19;;;;;;;11.30;8.50;;;;;;;9.17;61.76;100716.81;1087545;54;20050;-79
2022/03/28 02:21:21;;;;;;;12.48;9.07;;;;;;;9.16;61.76;100720.47;1087597;54;20066;-79
2022/03/28 02:22:25;;;;;;;12.35;9.18;;;;;;;9.20;61.51;100716.59;1087482;54;20560;-78
2022/03/28 02:23:28;;;;;;;11.70;8.50;;;;;;;9.28;61.25;100720.47;1087558;54;20034;-79
2022/03/28 02:24:34;;;;;;;11.00;7.60;;;;;;;9.36;61.09;100716.25;1087470;54;20030;-80
2022/03/28 02:25:38;;;;;;;9.98;7.30;;;;;;;9.42;61.00;100724.72;1087415;54;20050;-79
2022/03/28 02:26:42;;;;;;;11.43;8.02;;;;;;;9.43;60.74;100718.44;1087576;54;20042;-80
2022/03/28 02:27:47;;;;;;;13.63;8.13;;;;;;;9.37;60.93;100719.75;1087964;54;20046;-78
2022/03/28 02:28:48;;;;;;;12.90;8.52;;;;;;;9.38;61.00;100721.47;1090164;46;20034;-79
2022/03/28 02:29:52;;;;;;;12.10;7.70;;;;;;;9.45;60.59;100716.50;1088203;54;20034;-78
2022/03/28 02:30:54;;;;;;;10.57;7.80;;;;;;;9.42;60.66;100714.06;1089692;46;20035;-78
2022/03/28 02:31:58;;;;;;;13.90;8.45;;;;;;;9.45;60.86;100725.34;1088126;54;20034;-78
2022/03/28 02:33:00;;;;;;;11.25;8.02;;;;;;;9.45;60.72;100722.66;1088190;54;20730;-77
2022/03/28 02:34:04;;;;;;;11.27;7.80;;;;;;;9.41;60.91;100712.34;1088172;54;20940;-77
2022/03/28 02:35:09;;;;;;;10.68;7.05;;;;;;;9.45;61.07;100712.00;1088205;54;20030;-77
2022/03/28 02:36:11;;;;;;;11.13;7.68;;;;;;;9.43;61.06;100710.41;1088165;54;20019;-77
2022/03/28 02:37:15;;;;;;;11.52;7.93;;;;;;;9.44;60.97;100712.13;1088212;54;20034;-78
2022/03/28 02:38:17;;;;;;;14.30;8.25;;;;;;;9.45;60.96;100716.50;1088199;54;20038;-78
2022/03/28 02:39:21;;;;;;;10.60;7.70;;;;;;;9.41;61.15;100715.88;1088218;54;20034;-77
2022/03/28 02:40:25;;;;;;;11.18;8.35;;;;;;;9.39;61.33;100714.31;1088198;54;20038;-76
2022/03/28 02:41:29;;;;;;;11.63;7.85;;;;;;;9.39;61.40;100717.81;1087939;54;20034;-78
2022/03/28 02:42:31;;;;;;;10.60;7.80;;;;;;;9.38;61.56;100715.28;1088020;54;20038;-77
2022/03/28 02:43:35;;;;;;;11.10;7.88;;;;;;;9.32;61.36;100709.44;1088197;54;20035;-77
2022/03/28 02:44:37;;;;;;;11.80;8.38;;;;;;;9.28;62.03;100715.13;1090871;46;20061;-77
2022/03/28 02:45:41;;;;;;;10.82;8.30;;;;;;;9.27;61.68;100718.78;1088110;54;20033;-77
2022/03/28 02:46:42;;;;;;;10.00;7.88;;;;;;;9.32;61.89;100716.63;1088154;54;20034;-77
2022/03/28 02:47:46;;;;;;;9.82;7.57;;;;;;;9.32;61.73;100717.44;1088229;54;20107;-77
2022/03/28 02:48:48;;;;;;;10.15;7.50;;;;;;;9.30;62.09;100710.53;1088205;54;20022;-78
2022/03/28 02:49:52;;;;;;;11.20;7.43;;;;;;;9.32;61.96;100712.09;1088168;54;20018;-77
2022/03/28 02:50:54;;;;;;;12.75;7.55;;;;;;;9.32;62.17;100721.94;1088093;54;20038;-78
2022/03/28 02:51:58;;;;;;;10.90;7.72;;;;;;;9.32;62.05;100713.94;1088066;54;20540;-76
2022/03/28 02:53:00;;;;;;;11.82;7.88;;;;;;;9.23;62.46;100714.66;1088146;54;20011;-77
2022/03/28 02:54:04;;;;;;;11.85;8.38;;;;;;;9.18;62.58;100710.53;1088053;54;20038;-77
2022/03/28 02:55:07;;;;;;;11.90;8.23;;;;;;;9.11;62.85;100711.97;1088147;54;20015;-77
2022/03/28 02:56:14;;;;;;;11.50;8.30;;;;;;;9.01;63.41;100711.84;1088186;54;20102;-77
2022/03/28 02:57:16;;;;;;;13.45;9.23;;;;;;;8.94;63.24;100710.59;1088113;54;20025;-77
2022/03/28 02:58:21;;;;;;;12.93;8.40;;;;;;;8.90;63.25;100706.50;1088084;54;20038;-77
2022/03/28 02:59:23;;;;;;;13.48;9.50;;;;;;;8.81;63.96;100712.53;1088120;54;20600;-77
2022/03/28 03:00:27;;;;;;;13.43;9.57;;;;;;;8.75;63.95;100708.50;1088519;47;20565;-78
2022/03/28 03:01:29;;;;;;;13.45;8.95;;;;;;;8.78;63.92;100707.41;1087940;54;20461;-77
2022/03/28 03:02:33;;;;;;;11.15;8.38;;;;;;;8.76;63.90;100704.00;1089008;39;20548;-76
2022/03/28 03:03:35;;;;;;;15.82;9.63;;;;;;;8.59;64.21;100708.81;1088213;54;20022;-76
2022/03/28 03:04:39;;;;;;;12.75;9.27;;;;;;;8.50;64.72;100709.50;1088050;54;20035;-78
2022/03/28 03:05:43;;;;;;;13.55;9.98;;;;;;;8.39;65.13;100707.63;1088242;54;20041;-80
2022/03/28 03:06:47;;;;;;;15.57;10.20;;;;;;;8.33;64.92;100702.72;1088163;54;20019;-80
2022/03/28 03:07:55;;;;;;;17.08;9.60;;;;;;;8.21;65.55;100704.50;1088104;54;20023;-80
2022/03/28 03:08:59;;;;;;;17.27;10.45;;;;;;;8.18;65.61;100708.25;1088451;54;20789;-79
2022/03/28 03:10:01;;;;;;;13.63;9.80;;;;;;;8.17;65.48;100709.22;1088632;47;20022;-79
2022/03/28 03:11:05;;;;;;;15.07;10.18;;;;;;;8.18;65.56;100713.56;1088208;54;20026;-78
2022/03/28 03:12:09;;;;;;;14.68;9.60;;;;;;;8.05;65.62;100705.63;1089206;47;20015;-80
2022/03/28 03:13:14;;;;;;;19.73;10.60;;;;;;;8.00;65.63;100706.94;1088365;54;20041;-78
2022/03/28 03:14:15;;;;;;;21.77;11.48;;;;;;;7.98;65.57;100699.06;1088267;54;20030;-80
2022/03/28 03:15:19;;;;;;;15.02;9.90;;;;;;;8.00;65.72;100701.63;1088862;47;20021;-80
2022/03/28 03:16:21;;;;;;;14.63;9.88;;;;;;;8.06;65.28;100698.50;1088355;54;20038;-80
2022/03/28 03:17:25;;;;;;;14.60;10.40;;;;;;;8.03;65.38;100690.75;1088343;54;20015;-81
2022/03/28 03:18:27;;;;;;;13.13;10.13;;;;;;;8.03;65.17;100690.75;1088925;47;20022;-80
2022/03/28 03:19:31;;;;;;;14.18;9.85;;;;;;;7.95;65.09;100693.97;1089693;47;20118;-79
2022/03/28 03:20:33;;;;;;;16.30;10.00;;;;;;;7.91;65.21;100682.69;1087948;54;20042;-79
2022/03/28 03:21:38;;;;;;;15.73;9.63;;;;;;;7.96;65.21;100691.19;1088033;54;20030;-79
2022/03/28 03:22:40;;;;;;;15.05;10.10;;;;;;;8.12;64.72;100692.72;1088232;54;20050;-80
2022/03/28 03:23:48;;;;;;;12.20;8.35;;;;;;;8.18;64.48;100694.94;1088432;54;20019;-80
2022/03/28 03:24:50;;;;;;;13.63;10.07;;;;;;;8.04;64.72;100689.75;1089670;47;20034;-80
2022/03/28 03:25:54;;;;;;;14.27;9.77;;;;;;;7.88;65.31;100695.38;1088291;54;20034;-79
2022/03/28 03:27:06;;;;;;;16.58;9.82;;;;;;;7.80;65.87;100696.75;1088372;54;20015;-80
2022/03/28 03:28:10;;;;;;;13.35;9.55;;;;;;;7.81;65.51;100698.47;1088428;54;20050;-79
2022/03/28 03:29:14;;;;;;;14.20;9.63;;;;;;;7.86;65.49;100690.16;1092995;47;20015;-80
2022/03/28 03:30:16;;;;;;;13.65;9.52;;;;;;;7.80;65.33;100685.28;1091245;47;20120;-78
2022/03/28 03:31:21;;;;;;;14.20;9.75;;;;;;;7.67;65.58;100693.28;1090962;39;20816;-79
2022/03/28 03:32:25;;;;;;;15.57;10.10;;;;;;;7.63;65.80;100698.00;1094039;47;20034;-79
2022/03/28 03:33:30;;;;;;;14.48;9.50;;;;;;;7.70;65.63;100693.06;1088970;47;20030;-80
2022/03/28 03:34:42;;;;;;;12.57;9.00;;;;;;;7.79;65.67;100695.06;1090749;47;20022;-80
2022/03/28 03:35:44;;;;;;;13.38;8.88;;;;;;;7.90;65.00;100685.44;1091043;47;20058;-80
2022/03/28 03:36:49;;;;;;;13.57;9.57;;;;;;;7.88;64.72;100690.88;1088115;54;20061;-80
2022/03/28 03:37:50;;;;;;;13.82;9.52;;;;;;;7.81;65.21;100686.97;1088099;54;20034;-80
2022/03/28 03:38:55;;;;;;;15.13;10.30;;;;;;;7.68;65.52;100691.47;1088127;54;20030;-80
2022/03/28 03:39:56;;;;;;;13.18;9.63;;;;;;;7.56;65.97;100688.72;1088051;54;20057;-80
2022/03/28 03:41:00;;;;;;;13.95;9.95;;;;;;;7.56;66.09;100695.88;1088049;54;20722;-79
2022/03/28 03:42:02;;;;;;;13.63;10.02;;;;;;;7.57;65.94;100694.91;1088043;54;20711;-79
2022/03/28 03:43:07;;;;;;;19.30;10.85;;;;;;;7.56;66.07;100702.03;1088013;54;20057;-80
2022/03/28 03:44:11;;;;;;;13.93;9.05;;;;;;;7.55;66.29;100702.16;1088082;54;20033;-79
2022/03/28 03:45:16;;;;;;;13.60;9.98;;;;;;;7.57;66.31;100700.22;1088001;54;20062;-79
2022/03/28 03:46:18;;;;;;;18.35;10.57;;;;;;;7.53;66.32;100699.59;1087990;54;20058;-79
2022/03/28 03:47:22;;;;;;;14.95;9.90;;;;;;;7.51;66.13;100695.34;1088066;54;20046;-80
2022/03/28 03:48:25;;;;;;;13.13;10.23;;;;;;;7.42;66.83;100686.22;1088099;54;20690;-79
2022/03/28 03:49:30;;;;;;;17.60;9.40;;;;;;;7.49;66.52;100693.66;1088074;54;20042;-83
2022/03/28 03:50:31;;;;;;;15.20;10.02;;;;;;;7.49;66.38;100690.13;1088139;54;20038;-79
2022/03/28 03:51:35;;;;;;;14.40;9.48;;;;;;;7.64;65.97;100689.06;1088041;54;20030;-80
2022/03/28 03:52:37;;;;;;;11.32;8.10;;;;;;;7.78;65.50;100696.03;1088092;54;20026;-79
2022/03/28 03:53:41;;;;;;;12.63;8.43;;;;;;;7.90;64.98;100685.44;1090808;47;20038;-80
2022/03/28 03:54:43;;;;;;;11.63;8.82;;;;;;;7.97;64.75;100692.88;1088089;54;20014;-79
2022/03/28 03:55:47;;;;;;;13.15;8.65;;;;;;;8.01;64.74;100687.34;1088010;54;20034;-79
2022/03/28 03:56:49;;;;;;;12.05;7.55;;;;;;;8.06;64.41;100680.72;1088049;54;20042;-80
2022/03/28 03:57:53;;;;;;;10.45;7.47;;;;;;;8.09;64.55;100679.63;1087984;54;20058;-78
2022/03/28 03:58:58;;;;;;;12.27;7.88;;;;;;;8.15;64.36;100687.16;1088020;54;20030;-79
2022/03/28 04:00:04;;;;;;;10.00;7.40;;;;;;;8.20;64.36;100685.03;1088013;54;20027;-78
2022/03/28 04:01:09;;;;;;;11.45;7.75;;;;;;;8.25;64.28;100684.69;1087452;54;20031;-80
2022/03/28 04:02:11;;;;;;;12.85;8.88;;;;;;;8.07;64.42;100677.09;1087975;54;20030;-80
2022/03/28 04:03:15;;;;;;;15.05;9.57;;;;;;;7.84;65.54;100688.56;1094148;39;20604;-79
2022/03/28 04:04:17;;;;;;;14.57;9.77;;;;;;;7.67;65.94;100680.00;1088082;54;20039;-79
2022/03/28 04:05:21;;;;;;;13.25;9.95;;;;;;;7.61;66.04;100683.06;1088020;54;20039;-79
2022/03/28 04:06:23;;;;;;;15.30;10.00;;;;;;;7.57;66.25;100684.28;1087922;54;20034;-79
2022/03/28 04:07:27;;;;;;;15.68;9.90;;;;;;;7.54;66.46;100687.13;1088079;54;20041;-79
2022/03/28 04:08:29;;;;;;;15.73;10.20;;;;;;;7.47;66.29;100686.72;1088051;54;20038;-79
2022/03/28 04:09:34;;;;;;;15.45;9.82;;;;;;;7.38;66.93;100680.25;1088006;54;20670;-79
2022/03/28 04:10:35;;;;;;;14.23;10.27;;;;;;;7.38;66.58;100674.06;1088016;54;20286;-81
2022/03/28 04:11:39;;;;;;;14.15;10.25;;;;;;;7.31;66.85;100679.84;1087920;54;20086;-81
2022/03/28 04:12:41;;;;;;;14.57;10.68;;;;;;;7.21;67.16;100683.25;1087934;54;20034;-80
2022/03/28 04:13:46;;;;;;;17.83;10.73;;;;;;;7.14;67.24;100680.16;1087931;54;20042;-79
2022/03/28 04:14:47;;;;;;;14.48;9.90;;;;;;;7.09;67.54;100682.28;1087957;54;20034;-79
2022/03/28 04:15:54;;;;;;;15.30;10.88;;;;;;;7.03;67.43;100684.44;1087972;54;20588;-81
2022/03/28 04:16:56;;;;;;;15.73;10.35;;;;;;;6.97;67.69;100682.19;1089583;47;20015;-80
2022/03/28 04:18:00;;;;;;;14.20;10.55;;;;;;;6.86;68.07;100680.25;1091022;46;20026;-80
2022/03/28 04:19:02;;;;;;;15.85;10.90;;;;;;;6.76;68.41;100684.50;1088373;54;20014;-80
2022/03/28 04:20:07;;;;;;;18.27;11.25;;;;;;;6.70;68.41;100683.13;1088363;54;20075;-80
2022/03/28 04:21:09;;;;;;;18.05;11.48;;;;;;;6.65;68.58;100689.72;1088357;54;20034;-80
2022/03/28 04:22:13;;;;;;;17.38;10.70;;;;;;;6.61;68.91;100680.25;1089084;46;20567;-80
2022/03/28 04:23:14;;;;;;;19.50;11.48;;;;;;;6.58;68.85;100688.41;1088294;54;20025;-79
2022/03/28 04:24:18;;;;;;;17.80;10.88;;;;;;;6.58;69.10;100685.75;1088398;54;20030;-81
2022/03/28 04:25:23;;;;;;;18.05;11.63;;;;;;;6.49;69.56;100688.06;1088390;54;20038;-80
2022/03/28 04:26:24;;;;;;;18.35;11.38;;;;;;;6.39;69.84;100685.19;1088363;54;20029;-80
2022/03/28 04:27:28;;;;;;;16.58;11.07;;;;;;;6.37;69.96;100689.75;1088425;54;20031;-80
2022/03/28 04:28:34;;;;;;;16.40;11.10;;;;;;;6.39;69.69;100686.97;1088393;54;20025;-82
2022/03/28 04:29:35;;;;;;;14.30;10.82;;;;;;;6.40;69.47;100686.91;1088487;54;20067;-82
2022/03/28 04:30:40;;;;;;;15.52;10.38;;;;;;;6.37;69.29;100688.91;1088473;54;20018;-81
2022/03/28 04:31:44;;;;;;;13.93;10.90;;;;;;;6.33;69.61;100684.75;1088363;54;20034;-81
2022/03/28 04:32:48;;;;;;;16.08;10.93;;;;;;;6.34;69.58;100684.63;1088481;54;20737;-81
2022/03/28 04:33:50;;;;;;;16.20;10.57;;;;;;;6.26;69.74;100686.94;1093919;39;20564;-80
2022/03/28 04:34:54;;;;;;;14.60;10.52;;;;;;;6.24;69.72;100686.19;1097551;39;20634;-80
2022/03/28 04:35:56;;;;;;;18.25;11.20;;;;;;;6.21;69.90;100686.41;1088328;54;20031;-81
2022/03/28 04:37:00;;;;;;;14.73;10.43;;;;;;;6.17;69.74;100687.56;1088400;54;20031;-81
2022/03/28 04:38:05;;;;;;;17.38;11.38;;;;;;;6.14;70.14;100688.63;1088367;54;20046;-80
2022/03/28 04:39:09;;;;;;;16.90;10.65;;;;;;;6.18;69.85;100687.47;1088336;54;20023;-82
2022/03/28 04:40:16;;;;;;;18.33;12.10;;;;;;;6.17;69.72;100679.59;1088364;54;20019;-80
2022/03/28 04:41:18;;;;;;;15.95;11.25;;;;;;;6.18;69.78;100689.25;1088296;54;20031;-80
2022/03/28 04:42:23;;;;;;;16.55;11.15;;;;;;;6.19;69.83;100690.97;1088333;54;20038;-80
2022/03/28 04:43:24;;;;;;;15.48;10.15;;;;;;;6.22;69.81;100685.47;1090191;46;20062;-80
2022/03/28 04:44:29;;;;;;;18.40;11.07;;;;;;;6.24;69.44;100683.53;1094955;39;20699;-79
2022/03/28 04:45:31;;;;;;;19.13;11.68;;;;;;;6.20;69.48;100688.19;1088365;54;20034;-80
2022/03/28 04:46:35;;;;;;;15.63;11.15;;;;;;;6.17;69.74;100691.06;1088333;54;20098;-81
2022/03/28 04:47:39;;;;;;;20.40;13.00;;;;;;;6.17;69.91;100691.06;1088298;54;20053;-80
2022/03/28 04:48:43;;;;;;;18.27;11.43;;;;;;;6.14;70.17;100691.28;1088361;54;20054;-79
2022/03/28 04:49:45;;;;;;;15.88;11.38;;;;;;;6.18;69.98;100678.63;1088385;54;20018;-80
2022/03/28 04:50:50;;;;;;;17.95;12.52;;;;;;;6.16;69.93;100685.84;1088350;54;20030;-80
2022/03/28 04:51:51;;;;;;;17.63;11.77;;;;;;;6.16;69.85;100683.19;1088333;54;20030;-80
2022/03/28 04:52:55;;;;;;;19.63;12.20;;;;;;;6.19;69.93;100685.66;1089979;46;20042;-80
2022/03/28 04:53:57;;;;;;;18.48;11.60;;;;;;;6.20;69.85;100685.53;1089422;46;20126;-81
2022/03/28 04:55:01;;;;;;;17.45;11.68;;;;;;;6.22;69.74;100682.81;1088283;54;20034;-80
2022/03/28 04:56:04;;;;;;;17.55;12.13;;;;;;;6.20;69.91;100687.38;1091846;39;20552;-81
2022/03/28 04:57:08;;;;;;;16.92;12.02;;;;;;;6.14;69.85;100685.13;1088367;54;20034;-80